Terminal Aerodrome Forecast
Issued by NWS

Home | Current Version | Previous Version | Text Only | Print | Product List | Glossary On
Versions: 1 2 3 4 5 6 7 8 9 10 11 12 13 14
360
FTUS43 KGRR 211131
TAFJXN
TAF
KJXN 211131Z 2112/2212 19008KT P6SM OVC045
     FM211500 22008KT P6SM -RA OVC035
     FM211600 23008KT 4SM -RA BR OVC010
     FM211900 25007KT P6SM OVC015
     FM212300 24007KT P6SM SCT015 SCT250
     FM220600 22006KT 3SM BR OVC008=

USA.gov is the U.S. government's official web portal to all federal, state and local government web resources and services.